• Join FlightAware (Why Join?)
  • Login
  • US Flag 
08:58PM EDT


 

Airport Tracker/Info


-or-


 

Live Flight TrackerFlight Track Log ✈ FLG3861 ✈ 08-Nov-2013 ✈ KDTW - KBGM

Flight Track Log - Related Links

Times and Time Zones

All times are in EST time to prevent confusion due to time zone crossing. See the FLG3861 flight status page for this flight to view local times or setup timezone preferences in your user account.

Time Position Orientation Groundspeed Altitude Reporting Facility
EST Latitude Longitude Course Direction KTS MPH feet Rate Location/Type
10:01PM 42.2050 -83.3528 179° South 164 189 1,100  Level Cleveland Center
10:02PM 42.1611 -83.3522 179° South 187 215 3,500 2,040 Climbing Cleveland Center
10:03PM 42.1386 -83.3469 170° South 183 211 4,200 1,740 Climbing Cleveland Center
10:03PM 42.1056 -83.3389 170° South 250 288 5,100 1,860 Climbing Cleveland Center
10:04PM 42.0783 -83.2967 131° Southeast 254 292 6,100 2,220 Climbing Cleveland Center
10:04PM 42.0661 -83.2517 110° East 305 351 7,400 2,940 Climbing Cleveland Center
10:05PM 42.0508 -83.1761 105° East 298 343 9,100 1,920 Climbing Cleveland Center
10:06PM 42.0828 -83.0669 68° East 325 374 10,800 1,860 Climbing Cleveland Center
10:07PM 42.1342 -82.9583 57° Northeast 345 397 13,000 1,680 Climbing Cleveland Center
10:08PM 42.1881 -82.8439 58° Northeast 363 418 14,300 1,440 Climbing Cleveland Center
10:09PM 42.2333 -82.7133 65° Northeast 399 459 16,000 1,560 Climbing Cleveland Center
10:10PM 42.2406 -82.5619 86° East 408 470 17,500 1,440 Climbing Cleveland Center
10:11PM 42.2431 -82.4111 89° East 405 466 19,000 1,440 Climbing Cleveland Center
10:12PM 42.2475 -82.2242 88° East 414 476 20,500 1,260 Climbing Cleveland Center
10:13PM 42.2506 -82.0669 88° East 427 491 21,600 1,080 Climbing Cleveland Center
10:14PM 42.2544 -81.9003 88° East 437 503 22,700 660 Climbing Cleveland Center
10:15PM 42.2567 -81.7308 89° East 443 510 23,000 540 Climbing Cleveland Center
10:16PM 42.2597 -81.5550 89° East 457 526 23,900 780 Climbing Cleveland Center
10:17PM 42.2622 -81.3783 89° East 465 535 24,600 480 Climbing Cleveland Center
10:18PM 42.2647 -81.2003 89° East 469 540 25,000 180 Climbing Cleveland Center
10:19PM 42.2664 -81.0211 89° East 471 542 25,000  Level Cleveland Center
10:20PM 42.2678 -80.8431 89° East 470 541 25,000  Level Cleveland Center
10:21PM 42.2694 -80.6694 89° East 463 533 25,000  Level Cleveland Center
10:22PM 42.2714 -80.4964 89° East 457 526 25,000  Level Cleveland Center
10:23PM 42.2722 -80.3214 90° East 460 529 25,000  Level Cleveland Center
10:24PM 42.2736 -80.1192 89° East 458 527 25,000  Level Cleveland Center
10:25PM 42.2728 -79.9533 90° East 457 526 25,000  Level Cleveland Center
10:26PM 42.2722 -79.7844 90° East 453 521 25,000  Level Cleveland Center
10:27PM 42.2722 -79.6128 90° East 457 526 25,000  Level Cleveland Center
10:28PM 42.2717 -79.4422 90° East 457 526 25,000  Level Cleveland Center
10:29PM 42.2706 -79.2708 90° East 457 526 25,000  Level Cleveland Center
10:30PM 42.2694 -79.1014 90° East 455 524 25,000  Level Cleveland Center
10:31PM 42.2678 -78.9300 91° East 458 527 25,000  Level Cleveland Center
10:32PM 42.2669 -78.7553 90° East 452 520 25,000  Level Cleveland Center
10:33PM 42.2653 -78.5489 91° East 460 529 25,000  Level Cleveland Center
10:34PM 42.2628 -78.3789 91° East 457 526 25,000 -540 Level Cleveland Center
10:35PM 42.2611 -78.2081 91° East 459 528 24,000 -1,140 Descending Cleveland Center
10:36PM 42.2578 -78.0389 91° East 454 522 22,800 -1,200 Descending Cleveland Center
10:37PM 42.2556 -77.8744 91° East 445 512 21,600 -1,200 Descending Cleveland Center
10:39PM 42.2522 -77.7106 92° East 443 510 20,400 -1,920 Descending Cleveland Center
10:40PM 42.2503 -77.5531 91° East 432 497 17,700 -1,680 Descending Cleveland Center
10:41PM 42.2464 -77.4028 92° East 410 472 17,100 -300 Descending Cleveland Center
10:42PM 42.2422 -77.2267 92° East 398 458 17,100  Level Cleveland Center
10:43PM 42.2383 -77.0806 92° East 394 453 17,100 -180 Level Cleveland Center
10:43PM 42.2356 -76.9831 92° East 395 455 16,800 -780 Descending New York Center
10:44PM 42.2342 -76.8483 91° East 384 442 15,800 -960 Descending New York Center
10:45PM 42.2278 -76.7300 94° East 369 425 14,900 -1,140 Descending New York Center
10:46PM 42.2258 -76.5983 91° East 350 403 13,600 -1,080 Descending New York Center
10:47PM 42.2217 -76.4747 93° East 344 396 12,700 -1,200 Descending New York Center
10:48PM 42.2189 -76.3569 92° East 330 380 11,300 -1,260 Descending New York Center
10:49PM 42.2242 -76.2425 86° East 312 359 10,300 -1,020 Descending New York Center
10:50PM 42.2314 -76.1311 85° East 301 346 9,300 -1,320 Descending New York Center
10:51PM 42.2419 -76.0283 82° East 289 333 7,700 -1,620 Descending New York Center
10:52PM 42.2381 -75.9300 93° East 274 315 6,100 -900 Descending New York Center
10:53PM 42.1953 -75.8594 129° Southeast 248 285 5,900 -780 Descending New York Center
10:54PM 42.1481 -75.7972 136° Southeast 235 270 4,600 -900 Descending New York Center
10:55PM 42.1128 -75.8419 223° Southwest 158 182 4,200 -600 Descending New York Center
10:56PM 42.1167 -75.8981 275° West 112 129 3,400 -600 Descending New York Center
10:57PM 42.1444 -75.9311 319° Northwest 104 120 3,100 -660 Descending New York Center
10:58PM 42.1767 -75.9558 330° Northwest 110 127 2,200 -960 Descending New York Center